createdAt,value
2017-05-27T00:00:35.540Z,15.40
2017-05-27T00:03:05.180Z,15.40
2017-05-27T00:05:34.830Z,15.30
2017-05-27T00:08:04.128Z,15.30
2017-05-27T00:10:33.237Z,15.40
2017-05-27T00:13:02.270Z,15.30
2017-05-27T00:15:31.304Z,15.30
2017-05-27T00:18:00.607Z,15.20
2017-05-27T00:20:30.715Z,15.20
2017-05-27T00:22:59.460Z,15.10
2017-05-27T00:25:27.935Z,15.20
2017-05-27T00:27:56.605Z,15.10
2017-05-27T00:30:25.192Z,15.10
2017-05-27T00:32:53.760Z,15.10
2017-05-27T00:35:22.035Z,15.00
2017-05-27T00:37:50.484Z,15.00
2017-05-27T00:40:18.989Z,15.00
2017-05-27T00:42:47.275Z,14.90
2017-05-27T00:45:15.827Z,14.90
2017-05-27T00:47:44.461Z,14.90
2017-05-27T00:50:12.786Z,14.80
2017-05-27T00:52:42.456Z,14.80
2017-05-27T00:55:11.483Z,14.80
2017-05-27T00:57:40.361Z,14.70
2017-05-27T01:00:09.530Z,14.70
2017-05-27T01:02:38.720Z,14.60
2017-05-27T01:05:08.000Z,14.50
2017-05-27T01:07:37.614Z,14.50
2017-05-27T01:10:06.591Z,14.40
2017-05-27T01:12:36.520Z,14.40
2017-05-27T01:15:05.986Z,14.30
2017-05-27T01:17:35.073Z,14.30
2017-05-27T01:20:04.335Z,14.30
2017-05-27T01:22:33.653Z,14.30
2017-05-27T01:25:02.726Z,14.30
2017-05-27T01:27:31.218Z,14.30
2017-05-27T01:29:59.728Z,14.30
2017-05-27T01:32:29.163Z,14.20
2017-05-27T01:34:58.675Z,14.10
2017-05-27T01:37:28.198Z,14.10
2017-05-27T01:39:56.812Z,14.10
2017-05-27T01:42:25.150Z,14.10
2017-05-27T01:44:53.431Z,14.00
2017-05-27T01:47:21.903Z,14.10
2017-05-27T01:49:50.287Z,14.00
2017-05-27T01:52:18.627Z,14.00
2017-05-27T01:54:47.011Z,14.00
2017-05-27T01:57:15.442Z,14.00
2017-05-27T01:59:43.814Z,14.00
2017-05-27T02:02:12.354Z,14.00
2017-05-27T02:04:40.690Z,13.90
2017-05-27T02:07:08.998Z,13.90
2017-05-27T02:09:37.359Z,13.90
2017-05-27T02:12:05.863Z,13.90
2017-05-27T02:14:34.303Z,13.80
2017-05-27T02:17:02.741Z,13.80
2017-05-27T02:19:31.124Z,13.80
2017-05-27T02:21:59.594Z,13.70
2017-05-27T02:24:28.159Z,13.70
2017-05-27T02:26:56.552Z,13.70
2017-05-27T02:29:25.169Z,13.70
2017-05-27T02:31:53.566Z,13.70
2017-05-27T02:34:22.011Z,13.70
2017-05-27T02:36:50.532Z,13.70
2017-05-27T02:39:18.852Z,13.60
2017-05-27T02:41:47.443Z,13.70
2017-05-27T02:44:16.052Z,13.60
2017-05-27T02:46:44.549Z,13.60
2017-05-27T02:49:13.211Z,13.50
2017-05-27T02:51:41.555Z,13.50
2017-05-27T02:54:09.895Z,13.50
2017-05-27T02:56:38.240Z,13.50
2017-05-27T02:59:06.800Z,13.50
2017-05-27T03:01:35.138Z,13.50
2017-05-27T03:04:03.466Z,13.50
2017-05-27T03:06:31.985Z,13.60
2017-05-27T03:09:00.359Z,13.60
2017-05-27T03:11:28.991Z,13.60
2017-05-27T03:13:57.337Z,13.60
2017-05-27T03:16:25.627Z,13.60
2017-05-27T03:18:54.093Z,13.60
2017-05-27T03:21:22.697Z,13.60
2017-05-27T03:26:26.027Z,13.70
2017-05-27T03:28:54.316Z,13.70
2017-05-27T03:31:22.664Z,13.70
2017-05-27T03:33:50.982Z,13.70
2017-05-27T03:36:19.264Z,13.70
2017-05-27T03:38:47.554Z,13.80
2017-05-27T03:41:15.877Z,13.80
2017-05-27T03:43:44.207Z,13.80
2017-05-27T03:46:12.490Z,13.90
2017-05-27T03:48:40.775Z,13.90
2017-05-27T03:51:09.105Z,14.00
2017-05-27T03:53:37.392Z,14.00
2017-05-27T03:56:05.895Z,14.00
2017-05-27T03:58:34.197Z,14.00
2017-05-27T04:01:03.859Z,14.10
2017-05-27T04:03:32.193Z,14.20
2017-05-27T04:06:00.514Z,14.20
2017-05-27T04:08:28.836Z,14.20
2017-05-27T04:10:57.118Z,14.30
2017-05-27T04:13:25.405Z,14.40
2017-05-27T04:15:53.717Z,14.40
2017-05-27T04:18:21.996Z,14.40
2017-05-27T04:20:51.402Z,14.50
2017-05-27T04:23:19.696Z,14.60
2017-05-27T04:25:47.987Z,14.60
2017-05-27T04:28:16.309Z,14.70
2017-05-27T04:30:44.662Z,14.80
2017-05-27T04:33:12.980Z,14.90
2017-05-27T04:35:41.271Z,14.90
2017-05-27T04:38:09.600Z,15.00
2017-05-27T04:40:37.979Z,15.10
2017-05-27T04:43:06.269Z,15.20
2017-05-27T04:45:34.597Z,15.30
2017-05-27T04:48:02.889Z,15.40
2017-05-27T04:50:31.174Z,15.40
2017-05-27T04:52:59.487Z,15.50
2017-05-27T04:55:27.772Z,15.50
2017-05-27T04:57:56.084Z,15.60
2017-05-27T05:00:24.401Z,15.70
2017-05-27T05:02:52.696Z,15.80
2017-05-27T05:05:21.375Z,15.90
2017-05-27T05:07:50.792Z,16.00
2017-05-27T05:10:20.238Z,16.00
2017-05-27T05:12:49.461Z,16.10
2017-05-27T05:15:18.518Z,16.20
2017-05-27T05:17:48.928Z,16.30
2017-05-27T05:20:17.961Z,16.30
2017-05-27T05:22:47.119Z,16.40
2017-05-27T05:25:16.556Z,16.50
2017-05-27T05:27:45.594Z,16.50
2017-05-27T05:30:14.783Z,16.60
2017-05-27T05:32:43.147Z,16.70
2017-05-27T05:35:11.431Z,16.80
2017-05-27T05:37:39.750Z,16.90
2017-05-27T05:40:08.038Z,17.00
2017-05-27T05:42:36.562Z,17.10
2017-05-27T05:45:04.888Z,17.20
2017-05-27T05:47:33.180Z,17.30
2017-05-27T05:50:01.617Z,17.30
2017-05-27T05:52:29.917Z,17.50
2017-05-27T05:54:58.204Z,17.50
2017-05-27T05:57:26.752Z,17.60
2017-05-27T05:59:55.030Z,17.70
2017-05-27T06:02:23.318Z,17.80
2017-05-27T06:04:51.635Z,17.90
2017-05-27T06:07:19.926Z,17.90
2017-05-27T06:09:48.212Z,17.90
2017-05-27T06:12:16.540Z,18.00
2017-05-27T06:14:44.826Z,18.10
2017-05-27T06:17:13.475Z,18.20
2017-05-27T06:19:41.794Z,18.30
2017-05-27T06:22:10.096Z,18.30
2017-05-27T06:24:38.437Z,18.30
2017-05-27T06:27:06.714Z,18.40
2017-05-27T06:29:35.001Z,18.50
2017-05-27T06:32:03.652Z,18.50
2017-05-27T06:34:31.986Z,18.60
2017-05-27T06:37:00.286Z,18.70
2017-05-27T06:39:28.616Z,18.80
2017-05-27T06:41:56.903Z,18.90
2017-05-27T06:44:25.214Z,18.90
2017-05-27T06:46:53.527Z,19.00
2017-05-27T06:49:21.803Z,19.00
2017-05-27T06:51:50.129Z,19.10
2017-05-27T06:54:18.470Z,19.20
2017-05-27T06:56:46.789Z,19.20
2017-05-27T06:59:15.127Z,19.30
2017-05-27T07:01:43.422Z,19.40
2017-05-27T07:04:11.716Z,19.50
2017-05-27T07:06:40.055Z,19.50
2017-05-27T07:09:08.351Z,19.60
2017-05-27T07:11:36.705Z,19.70
2017-05-27T07:14:05.000Z,19.80
2017-05-27T07:16:33.330Z,19.80
2017-05-27T07:19:01.649Z,19.90
2017-05-27T07:21:29.940Z,19.90
2017-05-27T07:23:58.289Z,20.00
2017-05-27T07:26:26.584Z,20.10
2017-05-27T07:28:54.872Z,20.20
2017-05-27T07:31:23.189Z,20.20
2017-05-27T07:33:51.477Z,20.30
2017-05-27T07:36:19.793Z,20.40
2017-05-27T07:38:48.095Z,20.40
2017-05-27T07:41:16.415Z,20.50
2017-05-27T07:43:44.700Z,20.60
2017-05-27T07:46:12.996Z,20.70
2017-05-27T07:48:41.660Z,20.80
2017-05-27T07:51:09.940Z,20.90
2017-05-27T07:53:38.244Z,21.00
2017-05-27T07:56:06.577Z,21.00
2017-05-27T07:58:34.906Z,21.10
2017-05-27T08:01:03.340Z,21.10
2017-05-27T08:03:31.628Z,21.20
2017-05-27T08:05:59.994Z,21.20
2017-05-27T08:08:28.328Z,21.30
2017-05-27T08:10:56.602Z,21.30
2017-05-27T08:13:24.888Z,21.40
2017-05-27T08:15:53.216Z,21.40
2017-05-27T08:18:21.508Z,21.50
2017-05-27T08:20:49.839Z,21.60
2017-05-27T08:23:18.123Z,21.60
2017-05-27T08:25:46.410Z,21.70
2017-05-27T08:28:14.757Z,21.80
2017-05-27T08:30:43.048Z,21.80
2017-05-27T08:33:29.141Z,21.90
2017-05-27T08:35:57.767Z,22.00
2017-05-27T08:38:26.044Z,22.10
2017-05-27T08:40:54.413Z,22.20
2017-05-27T08:43:22.688Z,22.20
2017-05-27T08:45:51.046Z,22.20
2017-05-27T08:48:19.341Z,22.20
2017-05-27T08:50:47.631Z,22.20
2017-05-27T08:53:16.172Z,22.30
2017-05-27T08:55:44.450Z,22.40
2017-05-27T08:58:12.776Z,22.40
2017-05-27T09:00:41.077Z,22.40
2017-05-27T09:03:09.356Z,22.50
2017-05-27T09:05:37.712Z,22.50
2017-05-27T09:08:06.801Z,22.60
2017-05-27T09:10:35.084Z,22.70
2017-05-27T09:13:03.438Z,22.80
2017-05-27T09:15:31.732Z,22.90
2017-05-27T09:18:00.053Z,23.00
2017-05-27T09:20:28.338Z,23.10
2017-05-27T09:22:56.659Z,23.10
2017-05-27T09:25:24.943Z,23.10
2017-05-27T09:27:53.276Z,23.20
2017-05-27T09:30:21.557Z,23.30
2017-05-27T09:32:49.839Z,23.40
2017-05-27T09:35:18.193Z,23.50
2017-05-27T09:37:46.495Z,23.60
2017-05-27T09:40:14.898Z,23.60
2017-05-27T09:42:43.213Z,23.70
2017-05-27T09:45:11.540Z,23.70
2017-05-27T09:47:39.931Z,23.80
2017-05-27T09:50:08.211Z,23.70
2017-05-27T09:52:36.805Z,23.80
2017-05-27T09:55:05.096Z,23.80
2017-05-27T09:57:33.666Z,23.90
2017-05-27T10:00:01.987Z,24.00
2017-05-27T10:02:30.288Z,24.10
2017-05-27T10:04:58.615Z,24.30
2017-05-27T10:07:26.924Z,24.40
2017-05-27T10:09:55.218Z,24.40
2017-05-27T10:12:23.530Z,24.20
2017-05-27T10:14:51.811Z,24.20
2017-05-27T10:17:20.148Z,24.10
2017-05-27T10:19:48.432Z,24.10
2017-05-27T10:22:16.724Z,24.20
2017-05-27T10:24:45.047Z,24.10
2017-05-27T10:27:13.380Z,24.20
2017-05-27T10:29:41.719Z,24.20
2017-05-27T10:32:10.020Z,24.40
2017-05-27T10:34:38.308Z,24.60
2017-05-27T10:37:06.619Z,24.60
2017-05-27T10:39:34.916Z,24.70
2017-05-27T10:42:03.231Z,24.80
2017-05-27T10:44:31.506Z,24.80
2017-05-27T10:46:59.904Z,24.90
2017-05-27T10:49:28.188Z,24.60
2017-05-27T10:51:56.556Z,24.80
2017-05-27T10:54:24.871Z,25.00
2017-05-27T10:56:53.177Z,25.00
2017-05-27T10:59:21.467Z,25.10
2017-05-27T11:01:49.788Z,25.20
2017-05-27T11:04:18.071Z,25.40
2017-05-27T11:06:46.351Z,25.40
2017-05-27T11:09:14.688Z,25.40
2017-05-27T11:11:43.079Z,25.20
2017-05-27T11:14:11.373Z,25.20
2017-05-27T11:16:39.704Z,25.30
2017-05-27T11:19:07.988Z,25.40
2017-05-27T11:21:36.286Z,25.40
2017-05-27T11:24:04.602Z,25.50
2017-05-27T11:26:32.892Z,25.60
2017-05-27T11:29:01.187Z,25.70
2017-05-27T11:31:30.740Z,25.70
2017-05-27T11:33:59.072Z,25.90
2017-05-27T11:36:27.378Z,25.90
2017-05-27T11:38:55.761Z,25.70
2017-05-27T11:41:24.075Z,25.80
2017-05-27T11:43:52.636Z,25.70
2017-05-27T11:46:20.969Z,25.70
2017-05-27T11:48:49.257Z,25.80
2017-05-27T11:51:17.542Z,25.80
2017-05-27T11:53:45.910Z,25.90
2017-05-27T11:56:14.199Z,25.90
2017-05-27T11:58:42.586Z,26.00
2017-05-27T12:01:10.895Z,26.10
2017-05-27T12:03:39.462Z,26.20
2017-05-27T12:06:07.856Z,26.20
2017-05-27T12:08:36.147Z,26.10
2017-05-27T12:11:04.432Z,26.20
2017-05-27T12:13:32.776Z,26.40
2017-05-27T12:16:01.072Z,26.70
2017-05-27T12:18:29.415Z,27.00
2017-05-27T12:20:57.744Z,26.80
2017-05-27T12:23:26.032Z,26.90
2017-05-27T12:25:54.330Z,26.90
2017-05-27T12:28:22.956Z,27.10
2017-05-27T12:30:51.234Z,27.10
2017-05-27T12:33:19.524Z,26.80
2017-05-27T12:35:47.839Z,26.80
2017-05-27T12:38:16.242Z,27.00
2017-05-27T12:40:44.542Z,26.90
2017-05-27T12:43:12.811Z,26.80
2017-05-27T12:45:41.139Z,27.00
2017-05-27T12:48:09.419Z,27.20
2017-05-27T12:50:38.134Z,27.60
2017-05-27T12:53:06.423Z,27.90
2017-05-27T12:55:34.767Z,28.10
2017-05-27T12:58:03.101Z,28.00
2017-05-27T13:00:31.378Z,28.00
2017-05-27T13:02:59.679Z,28.00
2017-05-27T13:05:28.003Z,28.40
2017-05-27T13:07:56.297Z,28.80
2017-05-27T13:10:24.660Z,29.20
2017-05-27T13:12:52.939Z,29.10
2017-05-27T13:15:21.316Z,29.10
2017-05-27T13:17:49.696Z,29.00
2017-05-27T13:20:18.075Z,29.20
2017-05-27T13:22:46.452Z,29.70
2017-05-27T13:25:29.681Z,29.80
2017-05-27T13:27:58.060Z,29.50
2017-05-27T13:30:26.378Z,29.20
2017-05-27T13:32:54.672Z,29.60
2017-05-27T13:35:22.963Z,30.10
2017-05-27T13:37:51.275Z,30.80
2017-05-27T13:40:19.559Z,30.50
2017-05-27T13:42:47.900Z,30.60
2017-05-27T13:45:16.183Z,31.50
2017-05-27T13:47:44.480Z,31.80
2017-05-27T13:50:13.029Z,31.80
2017-05-27T13:52:41.306Z,32.30
2017-05-27T13:55:09.622Z,32.60
2017-05-27T13:57:37.912Z,33.10
2017-05-27T14:00:06.212Z,33.10
2017-05-27T14:02:34.533Z,32.70
2017-05-27T14:05:02.830Z,32.80
2017-05-27T14:07:31.152Z,33.20
2017-05-27T14:09:59.715Z,33.10
2017-05-27T14:12:28.004Z,33.10
2017-05-27T14:14:56.314Z,33.20
2017-05-27T14:17:24.604Z,33.70
2017-05-27T14:19:52.917Z,34.00
2017-05-27T14:22:21.208Z,33.90
2017-05-27T14:24:49.554Z,34.20
2017-05-27T14:27:17.894Z,34.60
2017-05-27T14:29:46.194Z,33.60
2017-05-27T14:32:14.591Z,33.40
2017-05-27T14:34:42.909Z,33.80
2017-05-27T14:37:11.523Z,34.30
2017-05-27T14:39:39.830Z,34.10
2017-05-27T14:42:08.211Z,34.70
2017-05-27T14:44:36.535Z,35.10
2017-05-27T14:47:04.861Z,35.60
2017-05-27T14:49:33.247Z,35.70
2017-05-27T14:52:01.527Z,36.10
2017-05-27T14:54:29.897Z,36.10
2017-05-27T14:56:58.498Z,34.70
2017-05-27T14:59:26.779Z,34.10
2017-05-27T15:01:55.099Z,34.30
2017-05-27T15:04:23.383Z,34.10
2017-05-27T15:06:51.709Z,34.10
2017-05-27T15:09:19.991Z,34.40
2017-05-27T15:11:48.319Z,34.20
2017-05-27T15:14:16.619Z,34.10
2017-05-27T15:16:44.909Z,35.20
2017-05-27T15:19:13.230Z,36.00
2017-05-27T15:21:41.526Z,36.40
2017-05-27T15:24:09.853Z,36.50
2017-05-27T15:26:38.148Z,36.70
2017-05-27T15:29:06.451Z,36.40
2017-05-27T15:31:34.764Z,36.00
2017-05-27T15:34:03.088Z,35.70
2017-05-27T15:36:31.407Z,35.90
2017-05-27T15:38:59.703Z,36.60
2017-05-27T15:41:28.264Z,37.60
2017-05-27T15:43:56.547Z,37.90
2017-05-27T15:46:24.841Z,38.00
2017-05-27T15:48:53.156Z,38.30
2017-05-27T15:51:21.723Z,38.80
2017-05-27T15:53:50.304Z,37.40
2017-05-27T15:56:18.596Z,37.10
2017-05-27T15:58:46.945Z,37.80
2017-05-27T16:01:15.236Z,38.70
2017-05-27T16:03:43.521Z,39.00
2017-05-27T16:06:11.876Z,39.30
2017-05-27T16:08:40.168Z,39.20
2017-05-27T16:11:08.455Z,39.50
2017-05-27T16:13:36.787Z,39.90
2017-05-27T16:16:05.081Z,40.30
2017-05-27T16:18:33.686Z,40.20
2017-05-27T16:21:02.037Z,40.60
2017-05-27T16:23:30.343Z,41.20
2017-05-27T16:25:58.627Z,41.40
2017-05-27T16:28:26.980Z,41.10
2017-05-27T16:30:55.360Z,41.40
2017-05-27T16:33:23.648Z,41.90
2017-05-27T16:35:51.940Z,42.20
2017-05-27T16:38:20.242Z,41.40
2017-05-27T16:40:48.535Z,41.90
2017-05-27T16:43:16.948Z,41.80
2017-05-27T16:45:45.327Z,42.00
2017-05-27T16:48:13.927Z,42.70
2017-05-27T16:50:42.241Z,43.40
2017-05-27T16:53:10.527Z,44.10
2017-05-27T16:55:38.892Z,44.90
2017-05-27T16:58:07.187Z,44.90
2017-05-27T17:00:35.466Z,45.30
2017-05-27T17:03:03.792Z,45.30
2017-05-27T17:05:32.068Z,45.80
2017-05-27T17:08:00.358Z,46.00
2017-05-27T17:10:28.683Z,46.20
2017-05-27T17:12:57.209Z,46.60
2017-05-27T17:15:25.536Z,45.60
2017-05-27T17:17:53.900Z,44.80
2017-05-27T17:20:22.272Z,43.80
2017-05-27T17:22:50.575Z,43.30
2017-05-27T17:25:18.888Z,43.00
2017-05-27T17:27:47.219Z,43.60
2017-05-27T17:30:15.860Z,44.40
2017-05-27T17:32:44.183Z,43.60
2017-05-27T17:35:12.503Z,43.30
2017-05-27T17:37:40.785Z,41.50
2017-05-27T17:40:09.119Z,42.00
2017-05-27T17:42:37.415Z,42.40
2017-05-27T17:45:05.710Z,43.10
2017-05-27T17:47:34.044Z,42.90
2017-05-27T17:50:02.340Z,42.80
2017-05-27T17:52:30.666Z,42.40
2017-05-27T17:54:58.953Z,41.90
2017-05-27T17:57:27.235Z,41.60
2017-05-27T17:59:55.548Z,40.90
2017-05-27T18:02:23.853Z,40.80
2017-05-27T18:04:52.450Z,41.00
2017-05-27T18:07:20.739Z,41.20
2017-05-27T18:09:49.056Z,40.30
2017-05-27T18:12:17.381Z,39.90
2017-05-27T18:14:45.697Z,39.00
2017-05-27T18:17:14.048Z,37.80
2017-05-27T18:19:42.331Z,36.70
2017-05-27T18:22:10.614Z,35.40
2017-05-27T18:24:38.956Z,33.90
2017-05-27T18:27:07.239Z,33.30
2017-05-27T18:29:35.528Z,33.10
2017-05-27T18:32:03.864Z,32.50
2017-05-27T18:34:32.149Z,32.00
2017-05-27T18:37:00.443Z,31.80
2017-05-27T18:39:29.039Z,32.00
2017-05-27T18:41:57.356Z,31.80
2017-05-27T18:44:25.658Z,31.20
2017-05-27T18:46:54.047Z,30.90
2017-05-27T18:49:22.357Z,30.20
2017-05-27T18:51:50.934Z,29.50
2017-05-27T18:54:19.268Z,29.00
2017-05-27T18:56:47.803Z,28.40
2017-05-27T18:59:16.143Z,28.00
2017-05-27T19:01:44.444Z,27.40
2017-05-27T19:04:12.795Z,27.20
2017-05-27T19:06:41.198Z,27.00
2017-05-27T19:09:09.495Z,26.80
2017-05-27T19:11:37.838Z,26.60
2017-05-27T19:14:06.132Z,26.50
2017-05-27T19:16:34.423Z,26.40
2017-05-27T19:19:02.740Z,26.20
2017-05-27T19:21:31.019Z,25.90
2017-05-27T19:23:59.341Z,25.70
2017-05-27T19:26:27.619Z,25.50
2017-05-27T19:28:55.955Z,25.30
2017-05-27T19:31:24.269Z,25.20
2017-05-27T19:33:52.623Z,25.10
2017-05-27T19:36:20.972Z,24.90
2017-05-27T19:38:49.289Z,24.80
2017-05-27T19:41:17.606Z,24.70
2017-05-27T19:43:45.961Z,24.60
2017-05-27T19:46:14.276Z,24.50
2017-05-27T19:48:42.651Z,24.30
2017-05-27T19:51:10.964Z,24.20
2017-05-27T19:53:39.279Z,24.10
2017-05-27T19:56:07.707Z,24.00
2017-05-27T19:58:36.007Z,24.00
2017-05-27T20:01:04.338Z,23.90
2017-05-27T20:03:32.634Z,23.80
2017-05-27T20:06:00.972Z,23.70
2017-05-27T20:08:29.254Z,23.50
2017-05-27T20:10:57.552Z,23.40
2017-05-27T20:13:26.115Z,23.20
2017-05-27T20:15:54.421Z,23.20
2017-05-27T20:18:22.770Z,23.10
2017-05-27T20:20:51.078Z,23.10
2017-05-27T20:23:19.377Z,22.90
2017-05-27T20:25:48.016Z,22.90
2017-05-27T20:28:16.299Z,22.80
2017-05-27T20:30:44.628Z,22.80
2017-05-27T20:33:12.917Z,22.70
2017-05-27T20:35:41.530Z,22.70
2017-05-27T20:38:09.823Z,22.60
2017-05-27T20:40:38.112Z,22.60
2017-05-27T20:43:06.551Z,22.60
2017-05-27T20:45:34.845Z,22.60
2017-05-27T20:48:03.154Z,22.50
2017-05-27T20:50:31.478Z,22.40
2017-05-27T20:52:59.831Z,22.30
2017-05-27T20:55:28.140Z,22.20
2017-05-27T20:57:56.480Z,22.20
2017-05-27T21:00:24.815Z,22.10
2017-05-27T21:02:53.129Z,22.00
2017-05-27T21:05:21.487Z,21.90
2017-05-27T21:07:49.780Z,21.90
2017-05-27T21:10:18.059Z,21.90
2017-05-27T21:12:46.389Z,21.80
2017-05-27T21:15:14.696Z,21.70
2017-05-27T21:17:43.035Z,21.70
2017-05-27T21:20:11.334Z,21.70
2017-05-27T21:22:39.636Z,21.60
2017-05-27T21:25:07.980Z,21.60
2017-05-27T21:27:36.299Z,21.60
2017-05-27T21:30:04.648Z,21.50
2017-05-27T21:32:33.004Z,21.40
2017-05-27T21:35:01.295Z,21.30
2017-05-27T21:37:29.636Z,21.20
2017-05-27T21:39:57.925Z,21.10
2017-05-27T21:42:26.236Z,21.10
2017-05-27T21:44:54.822Z,21.00
2017-05-27T21:47:23.164Z,20.90
2017-05-27T21:49:51.443Z,20.80
2017-05-27T21:52:19.761Z,20.70
2017-05-27T21:54:48.335Z,20.70
2017-05-27T21:57:16.664Z,20.60
2017-05-27T21:59:44.952Z,20.60
2017-05-27T22:02:13.227Z,20.50
2017-05-27T22:04:41.555Z,20.50
2017-05-27T22:07:09.834Z,20.50
2017-05-27T22:09:38.127Z,20.40
2017-05-27T22:12:06.451Z,20.30
2017-05-27T22:14:34.737Z,20.20
2017-05-27T22:17:03.019Z,20.10
2017-05-27T22:19:31.355Z,20.10
2017-05-27T22:21:59.642Z,20.00
2017-05-27T22:24:27.939Z,20.00
2017-05-27T22:26:56.256Z,20.00
2017-05-27T22:29:24.576Z,20.00
2017-05-27T22:31:52.887Z,20.00
2017-05-27T22:34:21.620Z,19.90
2017-05-27T22:36:49.940Z,19.90
2017-05-27T22:39:18.232Z,19.80
2017-05-27T22:41:46.563Z,19.80
2017-05-27T22:44:14.897Z,19.70
2017-05-27T22:46:43.184Z,19.60
2017-05-27T22:49:11.505Z,19.60
2017-05-27T22:51:39.787Z,19.50
2017-05-27T22:54:08.191Z,19.50
2017-05-27T22:56:36.471Z,19.50
2017-05-27T22:59:04.761Z,19.40
2017-05-27T23:01:33.083Z,19.20
2017-05-27T23:04:01.400Z,19.20
2017-05-27T23:06:29.726Z,19.10
2017-05-27T23:08:58.047Z,19.10
2017-05-27T23:11:26.331Z,19.00
2017-05-27T23:13:54.664Z,19.00
2017-05-27T23:16:22.948Z,19.00
2017-05-27T23:18:51.236Z,19.00
2017-05-27T23:21:19.560Z,18.90
2017-05-27T23:23:47.911Z,18.90
2017-05-27T23:26:16.200Z,18.90
2017-05-27T23:28:44.493Z,18.90
2017-05-27T23:31:12.813Z,18.90
2017-05-27T23:33:41.128Z,18.80
2017-05-27T23:36:09.465Z,18.70
2017-05-27T23:38:37.770Z,18.70
2017-05-27T23:41:06.067Z,18.60
2017-05-27T23:43:34.664Z,18.60
2017-05-27T23:46:02.953Z,18.50
2017-05-27T23:48:31.237Z,18.40
2017-05-27T23:50:59.565Z,18.30
2017-05-27T23:53:27.852Z,18.20
2017-05-27T23:55:56.343Z,18.10
2017-05-27T23:58:24.629Z,18.10
